Terminal Aerodrome Forecast
Issued by NWS Sterling, VA

Current Version | Previous Version | Text Only | Print | Product List | Glossary Off
Versions: 1 2 3 4 5 6 7 8 9 10 11 12 13 14 15 16 17 18 19 20 21 22 23 24 25

000
FTUS41 KLWX 191400 AAB
TAFDCA
TAF AMD
KDCA 191457Z 1915/2012 05008KT P6SM BKN015 BKN050
     FM191600 06007KT P6SM BKN050
     FM191800 11007KT P6SM BKN050
     FM200500 VRB03KT P6SM FEW050 SCT130=

USA.gov is the U.S. government's official web portal to all federal, state and local government web resources and services.